Time;durP1;ratioP1;P1;durP2;ratioP2;P2;SDS_P1;SDS_P2;PMS_P1;PMS_P2;Temp;Humidity;BMP_temperature;BMP_pressure;BME280_temperature;BME280_humidity;BME280_pressure;Samples;Min_cycle;Max_cycle;Signal;HPM_P1;HPM_P2
2023/12/31 00:00:00;;;;;;;3.10;1.50;;;;;;;;;;684986;28;1422;-69
2023/12/31 00:00:20;;;;;;;3.47;1.55;;;;;;;;;;686539;28;1469;-70
2023/12/31 00:00:41;;;;;;;3.17;1.40;;;;;;;;;;685091;28;1710;-71
2023/12/31 00:01:01;;;;;;;3.27;1.40;;;;;;;;;;687161;28;4344;-69
2023/12/31 00:01:23;;;;;;;3.47;1.50;;;;;;;;;;688470;28;1683;-69
2023/12/31 00:01:43;;;;;;;3.67;1.60;;;;;;;;;;687403;28;1514;-68
2023/12/31 00:02:03;;;;;;;2.40;1.37;;;;;;;;;;689553;28;1453;-71
2023/12/31 00:02:24;;;;;;;2.80;1.30;;;;;;;;;;689701;28;1387;-69
2023/12/31 00:02:44;;;;;;;3.80;1.65;;;;;;;;;;688119;28;2414;-71
2023/12/31 00:03:04;;;;;;;2.73;1.53;;;;;;;;;;689877;28;1347;-71
2023/12/31 00:03:25;;;;;;;3.73;1.63;;;;;;;;;;689972;28;1363;-71
2023/12/31 00:03:45;;;;;;;3.90;1.73;;;;;;;;;;687546;28;2084;-68
2023/12/31 00:04:05;;;;;;;3.97;1.60;;;;;;;;;;688272;28;4310;-68
2023/12/31 00:04:26;;;;;;;3.27;1.60;;;;;;;;;;689642;28;1621;-71
2023/12/31 00:04:46;;;;;;;3.40;1.80;;;;;;;;;;688092;28;1967;-68
2023/12/31 00:05:07;;;;;;;3.80;1.52;;;;;;;;;;686522;28;1356;-69
2023/12/31 00:05:27;;;;;;;3.83;1.60;;;;;;;;;;687226;28;2300;-68
2023/12/31 00:05:48;;;;;;;5.20;1.90;;;;;;;;;;688147;28;2537;-68
2023/12/31 00:06:09;;;;;;;4.93;1.90;;;;;;;;;;689233;28;2005;-69
2023/12/31 00:06:29;;;;;;;3.10;1.43;;;;;;;;;;682570;28;1651;-68
2023/12/31 00:06:50;;;;;;;4.10;1.50;;;;;;;;;;684049;28;1467;-68
2023/12/31 00:07:11;;;;;;;4.88;1.73;;;;;;;;;;684583;28;4327;-72
2023/12/31 00:07:33;;;;;;;3.53;1.80;;;;;;;;;;684036;28;2295;-68
2023/12/31 00:07:54;;;;;;;3.28;1.80;;;;;;;;;;686007;28;2010;-68
2023/12/31 00:08:15;;;;;;;3.00;1.80;;;;;;;;;;686336;28;1688;-68
2023/12/31 00:08:36;;;;;;;3.55;1.70;;;;;;;;;;687560;28;2078;-68
2023/12/31 00:08:56;;;;;;;3.95;1.70;;;;;;;;;;688755;28;1160;-67
2023/12/31 00:09:17;;;;;;;2.83;1.40;;;;;;;;;;689986;28;1251;-69
2023/12/31 00:09:38;;;;;;;3.00;1.50;;;;;;;;;;688303;28;2221;-68
2023/12/31 00:10:00;;;;;;;2.92;1.56;;;;;;;;;;689007;28;1317;-69
2023/12/31 00:10:21;;;;;;;2.97;1.60;;;;;;;;;;689081;28;5045;-68
2023/12/31 00:10:41;;;;;;;3.30;1.60;;;;;;;;;;688714;28;1767;-69
2023/12/31 00:11:02;;;;;;;3.60;1.70;;;;;;;;;;689674;28;1219;-69
2023/12/31 00:11:22;;;;;;;3.60;1.60;;;;;;;;;;689758;28;1278;-70
2023/12/31 00:11:42;;;;;;;2.90;1.63;;;;;;;;;;686194;28;2211;-71
2023/12/31 00:12:03;;;;;;;3.57;1.73;;;;;;;;;;683012;28;1430;-68
2023/12/31 00:12:23;;;;;;;4.13;1.80;;;;;;;;;;683581;28;960;-68
2023/12/31 00:12:44;;;;;;;3.57;1.60;;;;;;;;;;682207;28;1689;-68
2023/12/31 00:13:04;;;;;;;2.83;1.60;;;;;;;;;;683700;28;4405;-69
2023/12/31 00:13:24;;;;;;;3.92;1.60;;;;;;;;;;686058;28;1311;-68
2023/12/31 00:13:45;;;;;;;3.53;1.80;;;;;;;;;;688189;28;1490;-69
2023/12/31 00:14:05;;;;;;;3.60;1.67;;;;;;;;;;690610;28;1358;-68
2023/12/31 00:14:25;;;;;;;3.73;1.90;;;;;;;;;;692420;28;1318;-69
2023/12/31 00:14:46;;;;;;;3.53;1.80;;;;;;;;;;690821;28;1470;-68
2023/12/31 00:15:06;;;;;;;3.75;1.70;;;;;;;;;;691153;28;1274;-70
2023/12/31 00:15:26;;;;;;;3.80;1.70;;;;;;;;;;690948;28;1428;-68
2023/12/31 00:15:47;;;;;;;3.37;1.67;;;;;;;;;;690735;28;1680;-68
2023/12/31 00:16:11;;;;;;;4.40;1.80;;;;;;;;;;690647;28;4335;-68
2023/12/31 00:16:33;;;;;;;4.40;1.77;;;;;;;;;;686956;28;1852;-70
2023/12/31 00:16:53;;;;;;;3.05;1.83;;;;;;;;;;688073;28;1260;-70
2023/12/31 00:17:13;;;;;;;4.20;2.00;;;;;;;;;;688414;28;1239;-66
2023/12/31 00:17:34;;;;;;;3.97;1.77;;;;;;;;;;687045;28;1743;-68
2023/12/31 00:17:54;;;;;;;4.27;1.83;;;;;;;;;;688194;28;1319;-68
2023/12/31 00:18:14;;;;;;;4.70;2.20;;;;;;;;;;688945;28;1070;-68
2023/12/31 00:18:34;;;;;;;3.58;1.90;;;;;;;;;;689213;28;2174;-68
2023/12/31 00:18:54;;;;;;;3.77;2.00;;;;;;;;;;689386;28;1291;-66
2023/12/31 00:19:15;;;;;;;3.63;1.97;;;;;;;;;;688337;28;4313;-67
2023/12/31 00:19:35;;;;;;;3.80;1.87;;;;;;;;;;688385;28;1895;-67
2023/12/31 00:19:56;;;;;;;3.80;2.00;;;;;;;;;;689227;28;1234;-69
2023/12/31 00:20:16;;;;;;;3.55;1.90;;;;;;;;;;689205;28;1069;-68
2023/12/31 00:20:36;;;;;;;3.50;1.90;;;;;;;;;;689115;28;1559;-67
2023/12/31 00:20:56;;;;;;;3.10;1.80;;;;;;;;;;689718;28;1211;-67
2023/12/31 00:21:17;;;;;;;3.57;1.90;;;;;;;;;;686693;28;1457;-68
2023/12/31 00:21:41;;;;;;;3.70;2.00;;;;;;;;;;686359;28;1450;-68
2023/12/31 00:22:01;;;;;;;4.82;1.92;;;;;;;;;;686024;28;4360;-69
2023/12/31 00:22:21;;;;;;;4.70;2.07;;;;;;;;;;687116;28;1482;-71
2023/12/31 00:22:42;;;;;;;3.63;1.95;;;;;;;;;;686770;28;1933;-67
2023/12/31 00:23:02;;;;;;;3.30;1.80;;;;;;;;;;686472;28;1402;-68
2023/12/31 00:23:22;;;;;;;3.03;1.80;;;;;;;;;;686805;28;1342;-67
2023/12/31 00:23:43;;;;;;;4.20;1.90;;;;;;;;;;684837;28;3763;-67
2023/12/31 00:24:03;;;;;;;3.87;1.80;;;;;;;;;;686654;28;1865;-68
2023/12/31 00:24:24;;;;;;;3.50;1.80;;;;;;;;;;683834;28;1335;-68
2023/12/31 00:24:44;;;;;;;3.67;1.92;;;;;;;;;;682708;28;2258;-68
2023/12/31 00:25:04;;;;;;;3.72;1.95;;;;;;;;;;686497;28;4707;-68
2023/12/31 00:25:25;;;;;;;3.47;1.90;;;;;;;;;;686623;28;1228;-68
2023/12/31 00:25:45;;;;;;;4.10;1.90;;;;;;;;;;685895;28;1768;-68
2023/12/31 00:26:05;;;;;;;3.63;1.90;;;;;;;;;;689647;28;1322;-68
2023/12/31 00:26:25;;;;;;;4.10;2.00;;;;;;;;;;689587;28;1432;-68
2023/12/31 00:26:57;;;;;;;4.30;1.90;;;;;;;;;;689363;28;1207;-70
2023/12/31 00:27:17;;;;;;;4.33;1.90;;;;;;;;;;689827;28;1280;-68
2023/12/31 00:27:38;;;;;;;3.77;2.10;;;;;;;;;;688325;28;2358;-68
2023/12/31 00:27:59;;;;;;;3.63;1.92;;;;;;;;;;688721;28;1219;-68
2023/12/31 00:28:19;;;;;;;4.35;2.10;;;;;;;;;;685144;28;4579;-68
2023/12/31 00:28:40;;;;;;;4.20;2.10;;;;;;;;;;684042;28;1459;-67
2023/12/31 00:29:00;;;;;;;3.70;1.83;;;;;;;;;;681888;28;1221;-67
2023/12/31 00:29:20;;;;;;;3.80;2.03;;;;;;;;;;678942;29;1265;-68
2023/12/31 00:29:40;;;;;;;4.47;2.10;;;;;;;;;;677913;29;2377;-68
2023/12/31 00:30:01;;;;;;;4.50;2.10;;;;;;;;;;681218;29;1297;-69
2023/12/31 00:30:21;;;;;;;3.83;2.30;;;;;;;;;;681930;29;1470;-67
2023/12/31 00:30:42;;;;;;;3.70;2.10;;;;;;;;;;680521;28;1672;-69
2023/12/31 00:31:02;;;;;;;4.03;2.20;;;;;;;;;;684113;28;4380;-69
2023/12/31 00:31:22;;;;;;;4.50;2.22;;;;;;;;;;687205;28;1341;-69
2023/12/31 00:31:42;;;;;;;4.60;2.30;;;;;;;;;;682024;28;2007;-68
2023/12/31 00:32:03;;;;;;;4.50;2.10;;;;;;;;;;686303;28;1394;-68
2023/12/31 00:32:23;;;;;;;5.07;2.28;;;;;;;;;;687521;28;1460;-69
2023/12/31 00:32:43;;;;;;;4.20;2.20;;;;;;;;;;685915;28;1453;-66
2023/12/31 00:33:04;;;;;;;3.63;2.07;;;;;;;;;;686779;28;1240;-66
2023/12/31 00:33:24;;;;;;;4.35;2.20;;;;;;;;;;687055;28;1374;-67
2023/12/31 00:33:44;;;;;;;3.70;2.20;;;;;;;;;;688298;28;1892;-68
2023/12/31 00:34:05;;;;;;;4.70;2.20;;;;;;;;;;686346;28;4465;-69
2023/12/31 00:34:25;;;;;;;4.00;2.20;;;;;;;;;;685161;28;1445;-69
2023/12/31 00:34:45;;;;;;;4.37;2.30;;;;;;;;;;683220;28;1133;-69
2023/12/31 00:35:06;;;;;;;4.33;2.17;;;;;;;;;;681997;28;1304;-73
2023/12/31 00:35:26;;;;;;;4.80;2.28;;;;;;;;;;684704;28;1339;-68
2023/12/31 00:35:47;;;;;;;4.30;2.20;;;;;;;;;;683295;28;2394;-65
2023/12/31 00:36:08;;;;;;;3.95;2.13;;;;;;;;;;687230;28;1403;-68
2023/12/31 00:36:28;;;;;;;3.93;2.50;;;;;;;;;;685812;28;1580;-67
2023/12/31 00:36:49;;;;;;;4.27;2.30;;;;;;;;;;682467;28;1453;-68
2023/12/31 00:37:09;;;;;;;4.65;2.22;;;;;;;;;;681835;28;4558;-69
2023/12/31 00:37:29;;;;;;;4.57;2.20;;;;;;;;;;683706;28;1205;-67
2023/12/31 00:37:50;;;;;;;4.90;2.00;;;;;;;;;;682892;28;1717;-67
2023/12/31 00:38:10;;;;;;;3.87;2.17;;;;;;;;;;678349;29;1258;-68
2023/12/31 00:38:30;;;;;;;3.87;2.17;;;;;;;;;;679071;29;6399;-68
2023/12/31 00:38:51;;;;;;;3.90;2.30;;;;;;;;;;683253;28;2062;-68
2023/12/31 00:39:11;;;;;;;4.13;2.40;;;;;;;;;;687122;28;1265;-70
2023/12/31 00:39:31;;;;;;;3.90;2.42;;;;;;;;;;686129;28;1749;-71
2023/12/31 00:39:52;;;;;;;4.30;2.40;;;;;;;;;;683092;28;1237;-69
2023/12/31 00:40:12;;;;;;;4.90;2.30;;;;;;;;;;686173;28;4414;-68
2023/12/31 00:40:32;;;;;;;3.90;2.20;;;;;;;;;;688557;28;1868;-69
2023/12/31 00:40:53;;;;;;;5.00;2.20;;;;;;;;;;689945;28;1235;-69
2023/12/31 00:41:13;;;;;;;4.45;2.00;;;;;;;;;;689508;28;1295;-69
2023/12/31 00:41:33;;;;;;;4.10;2.07;;;;;;;;;;684309;28;2014;-68
2023/12/31 00:41:53;;;;;;;3.90;2.20;;;;;;;;;;686554;28;1488;-68
2023/12/31 00:42:14;;;;;;;4.57;2.20;;;;;;;;;;686526;28;5940;-69
2023/12/31 00:42:35;;;;;;;5.30;2.30;;;;;;;;;;685951;28;1741;-68
2023/12/31 00:42:56;;;;;;;4.43;2.28;;;;;;;;;;683695;28;1924;-69
2023/12/31 00:43:17;;;;;;;3.93;2.43;;;;;;;;;;681329;28;4832;-67
2023/12/31 00:43:37;;;;;;;3.88;2.33;;;;;;;;;;683657;28;1463;-68
2023/12/31 00:43:57;;;;;;;4.55;2.38;;;;;;;;;;687032;28;1358;-67
2023/12/31 00:44:18;;;;;;;5.70;2.30;;;;;;;;;;684028;28;1312;-68
2023/12/31 00:44:38;;;;;;;4.90;2.37;;;;;;;;;;683319;28;2254;-68
2023/12/31 00:44:58;;;;;;;4.65;2.22;;;;;;;;;;687077;28;1907;-66
2023/12/31 00:45:18;;;;;;;4.37;2.10;;;;;;;;;;686115;28;825;-68
2023/12/31 00:45:39;;;;;;;4.50;2.20;;;;;;;;;;685170;28;911;-68
2023/12/31 00:45:59;;;;;;;5.10;2.20;;;;;;;;;;686088;28;865;-68
2023/12/31 00:46:19;;;;;;;4.87;2.23;;;;;;;;;;685196;28;4410;-68
2023/12/31 00:46:40;;;;;;;5.17;2.40;;;;;;;;;;685785;28;2286;-67
2023/12/31 00:47:00;;;;;;;4.35;2.30;;;;;;;;;;685219;28;802;-68
2023/12/31 00:47:21;;;;;;;4.10;2.40;;;;;;;;;;688209;28;931;-68
2023/12/31 00:47:42;;;;;;;5.30;2.70;;;;;;;;;;687781;28;1457;-68
2023/12/31 00:48:03;;;;;;;4.43;2.40;;;;;;;;;;687970;28;837;-68
2023/12/31 00:48:25;;;;;;;4.45;2.42;;;;;;;;;;689656;28;1017;-70
2023/12/31 00:48:45;;;;;;;4.20;2.23;;;;;;;;;;688537;28;1131;-67
2023/12/31 00:49:05;;;;;;;3.43;2.20;;;;;;;;;;686845;28;4527;-67
2023/12/31 00:49:26;;;;;;;4.05;2.17;;;;;;;;;;685245;28;785;-68
2023/12/31 00:49:46;;;;;;;5.73;2.37;;;;;;;;;;684411;28;1720;-68
2023/12/31 00:50:07;;;;;;;5.83;2.57;;;;;;;;;;687466;28;920;-67
2023/12/31 00:50:27;;;;;;;3.97;2.30;;;;;;;;;;686472;28;952;-68
2023/12/31 00:50:48;;;;;;;3.75;2.20;;;;;;;;;;685902;28;1957;-68
2023/12/31 00:51:08;;;;;;;5.30;2.50;;;;;;;;;;687283;28;1226;-68
2023/12/31 00:51:30;;;;;;;4.60;2.30;;;;;;;;;;684279;28;1568;-67
2023/12/31 00:51:51;;;;;;;4.15;2.20;;;;;;;;;;680790;28;1793;-68
2023/12/31 00:52:11;;;;;;;4.27;2.30;;;;;;;;;;681810;28;4310;-69
2023/12/31 00:52:31;;;;;;;4.30;2.40;;;;;;;;;;683478;28;869;-68
2023/12/31 00:52:51;;;;;;;4.23;2.30;;;;;;;;;;681440;28;1842;-67
2023/12/31 00:53:12;;;;;;;5.40;2.40;;;;;;;;;;682425;28;857;-67
2023/12/31 00:53:32;;;;;;;4.18;2.50;;;;;;;;;;681782;28;2549;-68
2023/12/31 00:53:52;;;;;;;4.60;2.40;;;;;;;;;;681889;28;802;-69
2023/12/31 00:54:13;;;;;;;4.47;2.40;;;;;;;;;;684200;28;1290;-68
2023/12/31 00:54:34;;;;;;;3.90;2.47;;;;;;;;;;681193;28;1020;-68
2023/12/31 00:54:54;;;;;;;4.28;2.50;;;;;;;;;;680657;28;1024;-66
2023/12/31 00:55:14;;;;;;;4.80;2.40;;;;;;;;;;681457;28;4508;-67
2023/12/31 00:55:38;;;;;;;4.50;2.40;;;;;;;;;;681887;28;2293;-67
2023/12/31 00:55:58;;;;;;;4.32;2.45;;;;;;;;;;684591;28;1383;-66
2023/12/31 00:56:18;;;;;;;4.40;2.57;;;;;;;;;;684501;28;1236;-67
2023/12/31 00:56:38;;;;;;;4.50;2.47;;;;;;;;;;683713;28;1401;-68
2023/12/31 00:56:59;;;;;;;4.70;2.37;;;;;;;;;;687315;28;781;-66
2023/12/31 00:57:19;;;;;;;5.23;2.50;;;;;;;;;;689408;28;733;-68
2023/12/31 00:57:39;;;;;;;5.47;2.53;;;;;;;;;;685388;28;2009;-66
2023/12/31 00:57:59;;;;;;;5.20;2.60;;;;;;;;;;684844;28;1225;-68
2023/12/31 00:58:20;;;;;;;4.20;2.33;;;;;;;;;;686349;28;4273;-68
2023/12/31 00:58:40;;;;;;;5.20;2.38;;;;;;;;;;685754;28;1735;-71
2023/12/31 00:59:02;;;;;;;4.50;2.30;;;;;;;;;;686547;28;912;-67
2023/12/31 00:59:22;;;;;;;4.50;2.58;;;;;;;;;;685619;28;811;-67
2023/12/31 00:59:42;;;;;;;4.73;2.67;;;;;;;;;;685558;28;1489;-69
2023/12/31 01:00:04;;;;;;;4.70;2.40;;;;;;;;;;688622;28;805;-68
2023/12/31 01:00:25;;;;;;;3.70;2.10;;;;;;;;;;689097;28;1022;-68
2023/12/31 01:00:45;;;;;;;3.77;2.23;;;;;;;;;;684008;28;1953;-68
2023/12/31 01:01:05;;;;;;;4.03;2.40;;;;;;;;;;685509;28;4304;-68
2023/12/31 01:01:25;;;;;;;4.00;2.30;;;;;;;;;;686879;28;873;-67
2023/12/31 01:01:46;;;;;;;4.25;2.35;;;;;;;;;;687731;28;1720;-67
2023/12/31 01:02:07;;;;;;;4.63;2.45;;;;;;;;;;686044;28;1283;-67
2023/12/31 01:02:28;;;;;;;4.90;2.50;;;;;;;;;;686713;28;1690;-67
2023/12/31 01:02:49;;;;;;;4.80;2.42;;;;;;;;;;685770;28;3949;-67
2023/12/31 01:03:09;;;;;;;4.40;2.23;;;;;;;;;;686784;28;825;-67
2023/12/31 01:03:29;;;;;;;4.43;2.30;;;;;;;;;;687473;28;1267;-67
2023/12/31 01:03:50;;;;;;;4.33;2.30;;;;;;;;;;686061;28;2365;-67
2023/12/31 01:04:11;;;;;;;4.10;2.38;;;;;;;;;;687505;28;4317;-67
2023/12/31 01:04:31;;;;;;;4.00;2.40;;;;;;;;;;689813;28;825;-68
2023/12/31 01:04:51;;;;;;;3.65;2.10;;;;;;;;;;687534;28;1915;-67
2023/12/31 01:05:11;;;;;;;4.97;2.30;;;;;;;;;;684362;28;1321;-68
2023/12/31 01:05:32;;;;;;;4.80;2.40;;;;;;;;;;688075;28;995;-67
2023/12/31 01:05:52;;;;;;;4.68;2.35;;;;;;;;;;686939;28;2619;-67
2023/12/31 01:06:12;;;;;;;4.30;2.33;;;;;;;;;;688404;28;920;-67
2023/12/31 01:06:32;;;;;;;4.10;2.40;;;;;;;;;;682592;28;1236;-68
2023/12/31 01:06:53;;;;;;;6.38;2.40;;;;;;;;;;682144;28;1636;-68
2023/12/31 01:07:13;;;;;;;5.30;2.53;;;;;;;;;;682822;28;4397;-67
2023/12/31 01:07:33;;;;;;;4.50;2.50;;;;;;;;;;684187;28;1760;-68
2023/12/31 01:07:54;;;;;;;4.90;2.40;;;;;;;;;;687110;28;866;-68
2023/12/31 01:08:14;;;;;;;5.10;2.40;;;;;;;;;;681733;28;1275;-68
2023/12/31 01:08:35;;;;;;;4.32;2.40;;;;;;;;;;685706;28;2480;-68
2023/12/31 01:08:57;;;;;;;4.10;2.33;;;;;;;;;;685930;28;770;-68
2023/12/31 01:09:18;;;;;;;4.45;2.58;;;;;;;;;;684567;28;894;-67
2023/12/31 01:09:40;;;;;;;3.83;2.50;;;;;;;;;;684109;28;1699;-72
2023/12/31 01:10:01;;;;;;;4.07;2.20;;;;;;;;;;684904;28;1375;-69
2023/12/31 01:10:21;;;;;;;4.20;2.33;;;;;;;;;;684234;28;5753;-69
2023/12/31 01:10:42;;;;;;;4.07;2.28;;;;;;;;;;683390;28;1115;-67
2023/12/31 01:11:02;;;;;;;3.73;2.30;;;;;;;;;;684576;28;758;-68
2023/12/31 01:11:22;;;;;;;4.57;2.20;;;;;;;;;;681105;29;1597;-73
2023/12/31 01:11:42;;;;;;;4.27;2.30;;;;;;;;;;680603;28;1199;-68
2023/12/31 01:12:03;;;;;;;4.50;2.50;;;;;;;;;;684868;28;924;-67
2023/12/31 01:12:23;;;;;;;4.45;2.20;;;;;;;;;;688335;28;817;-67
2023/12/31 01:12:44;;;;;;;3.40;2.10;;;;;;;;;;685513;28;1464;-65
2023/12/31 01:13:04;;;;;;;4.20;2.25;;;;;;;;;;686733;28;4396;-66
2023/12/31 01:13:24;;;;;;;4.37;2.50;;;;;;;;;;688202;28;793;-68
2023/12/31 01:13:45;;;;;;;4.20;2.40;;;;;;;;;;686618;28;1849;-68
2023/12/31 01:14:05;;;;;;;4.73;2.43;;;;;;;;;;687406;28;1273;-67
2023/12/31 01:14:26;;;;;;;5.00;2.50;;;;;;;;;;687377;28;1912;-66
2023/12/31 01:14:46;;;;;;;4.07;2.43;;;;;;;;;;688306;28;1274;-67
2023/12/31 01:15:09;;;;;;;3.72;2.30;;;;;;;;;;689919;28;868;-66
2023/12/31 01:15:29;;;;;;;3.50;2.20;;;;;;;;;;686268;28;889;-66
2023/12/31 01:15:49;;;;;;;4.03;2.30;;;;;;;;;;685161;28;1869;-67
2023/12/31 01:16:10;;;;;;;4.43;2.50;;;;;;;;;;681968;28;5073;-67
2023/12/31 01:16:30;;;;;;;4.10;2.50;;;;;;;;;;684321;28;755;-66
2023/12/31 01:16:50;;;;;;;3.78;2.33;;;;;;;;;;683239;28;1537;-69
2023/12/31 01:17:10;;;;;;;3.93;2.20;;;;;;;;;;682134;28;841;-67
2023/12/31 01:17:31;;;;;;;4.70;2.13;;;;;;;;;;684156;28;933;-67
2023/12/31 01:17:51;;;;;;;4.53;2.33;;;;;;;;;;684266;28;1554;-68
2023/12/31 01:18:11;;;;;;;3.73;2.37;;;;;;;;;;685510;28;909;-67
2023/12/31 01:18:31;;;;;;;4.47;2.50;;;;;;;;;;687251;28;767;-67
2023/12/31 01:18:52;;;;;;;4.50;2.33;;;;;;;;;;685688;28;1759;-67
2023/12/31 01:19:12;;;;;;;3.90;2.23;;;;;;;;;;688451;28;4344;-67
2023/12/31 01:19:32;;;;;;;4.07;2.30;;;;;;;;;;686377;28;947;-68
2023/12/31 01:19:53;;;;;;;3.93;2.10;;;;;;;;;;685966;28;3214;-68
2023/12/31 01:20:14;;;;;;;3.55;2.15;;;;;;;;;;688900;28;841;-68
2023/12/31 01:20:34;;;;;;;3.88;2.30;;;;;;;;;;686865;28;1729;-67
2023/12/31 01:20:54;;;;;;;3.90;2.20;;;;;;;;;;689696;28;805;-67
2023/12/31 01:21:16;;;;;;;4.05;2.25;;;;;;;;;;685035;28;968;-67
2023/12/31 01:21:36;;;;;;;4.80;2.25;;;;;;;;;;687400;28;2334;-68
2023/12/31 01:21:57;;;;;;;4.77;2.20;;;;;;;;;;689274;28;924;-67
2023/12/31 01:22:18;;;;;;;3.85;2.20;;;;;;;;;;684664;28;4399;-67
2023/12/31 01:22:38;;;;;;;3.83;2.30;;;;;;;;;;684701;28;1133;-67
2023/12/31 01:22:58;;;;;;;3.80;2.20;;;;;;;;;;683322;28;1336;-67
2023/12/31 01:23:18;;;;;;;4.33;2.43;;;;;;;;;;683444;28;1181;-68
2023/12/31 01:23:39;;;;;;;4.57;2.27;;;;;;;;;;682406;28;2410;-67
2023/12/31 01:23:59;;;;;;;4.87;2.30;;;;;;;;;;680505;28;1173;-67
2023/12/31 01:24:19;;;;;;;4.43;2.40;;;;;;;;;;681232;29;1629;-67
2023/12/31 01:24:39;;;;;;;4.60;2.33;;;;;;;;;;680110;28;1895;-68
2023/12/31 01:25:00;;;;;;;4.80;2.37;;;;;;;;;;682794;28;1935;-67
2023/12/31 01:25:20;;;;;;;4.55;2.40;;;;;;;;;;681974;28;4537;-67
2023/12/31 01:25:41;;;;;;;4.10;2.30;;;;;;;;;;682736;28;1520;-66
2023/12/31 01:26:02;;;;;;;3.60;2.10;;;;;;;;;;684078;28;810;-67
2023/12/31 01:26:24;;;;;;;3.43;2.10;;;;;;;;;;686937;28;806;-67
2023/12/31 01:26:44;;;;;;;4.55;2.65;;;;;;;;;;686044;28;1445;-67
2023/12/31 01:27:04;;;;;;;4.50;2.30;;;;;;;;;;688611;28;1205;-66
2023/12/31 01:27:24;;;;;;;4.77;2.43;;;;;;;;;;688290;28;881;-67
2023/12/31 01:27:45;;;;;;;4.93;2.45;;;;;;;;;;687212;28;1786;-67
2023/12/31 01:28:05;;;;;;;5.00;2.20;;;;;;;;;;685487;28;4389;-67
2023/12/31 01:28:25;;;;;;;3.80;2.10;;;;;;;;;;685036;28;877;-66
2023/12/31 01:28:45;;;;;;;4.43;2.10;;;;;;;;;;683370;28;1567;-67
2023/12/31 01:29:06;;;;;;;4.23;2.30;;;;;;;;;;685210;28;1352;-67
2023/12/31 01:29:26;;;;;;;4.13;2.23;;;;;;;;;;687019;28;1392;-66
2023/12/31 01:29:46;;;;;;;4.35;2.33;;;;;;;;;;686375;28;2397;-67
2023/12/31 01:30:07;;;;;;;4.73;2.30;;;;;;;;;;687526;28;806;-67
2023/12/31 01:30:27;;;;;;;6.17;2.33;;;;;;;;;;687831;28;908;-67
2023/12/31 01:30:47;;;;;;;4.65;2.10;;;;;;;;;;684740;28;1196;-67
2023/12/31 01:31:07;;;;;;;4.13;2.33;;;;;;;;;;689479;28;4413;-66
2023/12/31 01:31:27;;;;;;;4.13;2.40;;;;;;;;;;689612;28;877;-67
2023/12/31 01:31:48;;;;;;;4.13;2.30;;;;;;;;;;688322;28;1893;-67
2023/12/31 01:32:08;;;;;;;3.70;2.20;;;;;;;;;;689701;28;924;-67
2023/12/31 01:32:28;;;;;;;3.83;2.13;;;;;;;;;;687024;28;956;-67
2023/12/31 01:32:50;;;;;;;4.10;2.27;;;;;;;;;;685047;28;1571;-67
2023/12/31 01:33:10;;;;;;;4.03;2.25;;;;;;;;;;686488;28;927;-66
2023/12/31 01:33:30;;;;;;;5.30;2.50;;;;;;;;;;686203;28;832;-68
2023/12/31 01:33:51;;;;;;;4.80;2.38;;;;;;;;;;685692;28;1280;-67
2023/12/31 01:34:12;;;;;;;4.30;2.20;;;;;;;;;;686798;28;4497;-67
2023/12/31 01:34:33;;;;;;;5.03;2.20;;;;;;;;;;684161;28;1291;-66
2023/12/31 01:34:58;;;;;;;4.40;2.28;;;;;;;;;;686292;28;6759;-67
2023/12/31 01:35:18;;;;;;;4.20;2.20;;;;;;;;;;687013;28;897;-67
2023/12/31 01:35:38;;;;;;;4.20;2.30;;;;;;;;;;683366;28;2509;-69
2023/12/31 01:35:59;;;;;;;4.43;2.30;;;;;;;;;;682360;28;857;-66
2023/12/31 01:36:24;;;;;;;3.92;2.35;;;;;;;;;;682666;28;1182;-69
2023/12/31 01:36:44;;;;;;;4.25;2.25;;;;;;;;;;684166;28;1462;-69
2023/12/31 01:37:05;;;;;;;3.30;2.00;;;;;;;;;;687196;28;4405;-66
2023/12/31 01:37:26;;;;;;;3.67;2.10;;;;;;;;;;688811;28;1213;-68
2023/12/31 01:37:46;;;;;;;3.50;2.00;;;;;;;;;;688666;28;1309;-68
2023/12/31 01:38:07;;;;;;;3.83;2.20;;;;;;;;;;690035;28;805;-67
2023/12/31 01:38:27;;;;;;;4.22;2.30;;;;;;;;;;689389;28;849;-67
2023/12/31 01:38:48;;;;;;;4.30;2.30;;;;;;;;;;685189;28;2055;-67
2023/12/31 01:39:08;;;;;;;4.20;2.30;;;;;;;;;;684623;28;1240;-67
2023/12/31 01:39:29;;;;;;;5.03;2.22;;;;;;;;;;684511;28;1158;-67
2023/12/31 01:39:50;;;;;;;5.55;2.40;;;;;;;;;;683875;28;1625;-67
2023/12/31 01:40:10;;;;;;;5.60;2.63;;;;;;;;;;683760;28;4510;-66
2023/12/31 01:40:30;;;;;;;4.73;2.33;;;;;;;;;;684901;28;988;-69
2023/12/31 01:40:52;;;;;;;4.13;2.42;;;;;;;;;;683284;28;1618;-67
2023/12/31 01:41:12;;;;;;;4.63;2.50;;;;;;;;;;682788;28;1260;-68
2023/12/31 01:41:33;;;;;;;4.80;2.20;;;;;;;;;;682206;28;1482;-67
2023/12/31 01:41:53;;;;;;;4.30;2.30;;;;;;;;;;680328;29;1758;-69
2023/12/31 01:42:13;;;;;;;4.13;2.60;;;;;;;;;;680790;29;6050;-68
2023/12/31 01:42:33;;;;;;;4.30;2.45;;;;;;;;;;681218;28;1480;-65
2023/12/31 01:42:54;;;;;;;4.60;2.40;;;;;;;;;;680869;28;2283;-68
2023/12/31 01:43:16;;;;;;;4.65;2.20;;;;;;;;;;685764;28;4308;-68
2023/12/31 01:43:37;;;;;;;4.93;2.70;;;;;;;;;;685090;28;1763;-67
2023/12/31 01:44:02;;;;;;;4.80;2.70;;;;;;;;;;686096;28;1315;-67
2023/12/31 01:44:22;;;;;;;4.70;2.40;;;;;;;;;;681460;28;1217;-66
2023/12/31 01:44:43;;;;;;;4.57;2.50;;;;;;;;;;682957;28;1899;-67
2023/12/31 01:45:04;;;;;;;3.95;2.22;;;;;;;;;;683243;28;1911;-67
2023/12/31 01:45:25;;;;;;;4.53;2.40;;;;;;;;;;683145;28;830;-67
2023/12/31 01:45:45;;;;;;;4.97;2.30;;;;;;;;;;684847;28;1718;-67
2023/12/31 01:46:07;;;;;;;4.70;2.20;;;;;;;;;;685807;28;4911;-67
2023/12/31 01:46:28;;;;;;;3.92;2.10;;;;;;;;;;686241;28;853;-67
2023/12/31 01:46:49;;;;;;;3.83;2.10;;;;;;;;;;687201;28;1414;-67
2023/12/31 01:47:10;;;;;;;3.70;2.20;;;;;;;;;;688716;28;735;-71
2023/12/31 01:47:31;;;;;;;4.35;2.30;;;;;;;;;;686627;28;880;-67
2023/12/31 01:47:52;;;;;;;3.80;2.20;;;;;;;;;;685761;28;2444;-67
2023/12/31 01:48:13;;;;;;;4.10;2.40;;;;;;;;;;683193;28;1654;-68
2023/12/31 01:48:34;;;;;;;4.50;2.45;;;;;;;;;;683167;28;854;-68
2023/12/31 01:48:55;;;;;;;5.43;2.30;;;;;;;;;;682786;28;1480;-67
2023/12/31 01:49:15;;;;;;;5.20;2.33;;;;;;;;;;682957;28;4454;-66
2023/12/31 01:49:35;;;;;;;3.83;2.23;;;;;;;;;;683064;28;1803;-70
2023/12/31 01:49:56;;;;;;;3.90;2.30;;;;;;;;;;680361;28;838;-68
2023/12/31 01:50:18;;;;;;;3.97;2.28;;;;;;;;;;684195;28;1291;-66
2023/12/31 01:50:38;;;;;;;4.15;2.30;;;;;;;;;;683074;28;1791;-67
2023/12/31 01:50:58;;;;;;;4.00;2.20;;;;;;;;;;680952;28;849;-68
2023/12/31 01:51:18;;;;;;;3.70;2.00;;;;;;;;;;679991;28;913;-70
2023/12/31 01:51:39;;;;;;;4.10;2.30;;;;;;;;;;682540;28;1770;-67
2023/12/31 01:52:00;;;;;;;4.50;2.40;;;;;;;;;;685050;28;975;-67
2023/12/31 01:52:21;;;;;;;4.72;2.30;;;;;;;;;;681169;28;4353;-67
2023/12/31 01:52:43;;;;;;;4.80;2.42;;;;;;;;;;680138;28;1864;-67
2023/12/31 01:53:03;;;;;;;4.57;2.42;;;;;;;;;;681640;29;925;-67
2023/12/31 01:53:24;;;;;;;4.18;2.30;;;;;;;;;;681898;29;826;-66
2023/12/31 01:53:46;;;;;;;3.67;2.20;;;;;;;;;;680291;28;1764;-66
2023/12/31 01:54:06;;;;;;;4.07;2.30;;;;;;;;;;683853;28;1111;-67
2023/12/31 01:54:27;;;;;;;4.60;2.28;;;;;;;;;;686129;28;878;-67
2023/12/31 01:54:48;;;;;;;3.70;2.20;;;;;;;;;;681337;28;1743;-66
2023/12/31 01:55:08;;;;;;;3.67;2.13;;;;;;;;;;682596;28;4444;-65
2023/12/31 01:55:28;;;;;;;3.70;2.20;;;;;;;;;;683189;28;1024;-67
2023/12/31 01:55:49;;;;;;;4.27;2.37;;;;;;;;;;682812;28;1478;-66
2023/12/31 01:56:10;;;;;;;4.20;2.42;;;;;;;;;;685007;28;1511;-66
2023/12/31 01:56:31;;;;;;;4.23;2.47;;;;;;;;;;681628;29;1237;-67
2023/12/31 01:56:53;;;;;;;4.00;2.30;;;;;;;;;;682029;28;1718;-66
2023/12/31 01:57:14;;;;;;;4.20;2.10;;;;;;;;;;681229;29;1485;-66
2023/12/31 01:57:37;;;;;;;4.75;2.40;;;;;;;;;;681769;29;1587;-65
2023/12/31 01:57:58;;;;;;;4.00;2.25;;;;;;;;;;681645;29;1468;-67
2023/12/31 01:58:18;;;;;;;3.85;2.30;;;;;;;;;;681695;28;4542;-67
2023/12/31 01:58:39;;;;;;;3.73;2.30;;;;;;;;;;681868;28;1713;-68
2023/12/31 01:58:59;;;;;;;3.55;2.10;;;;;;;;;;682649;28;1311;-66
2023/12/31 01:59:20;;;;;;;3.97;2.20;;;;;;;;;;684208;28;1401;-67
2023/12/31 01:59:41;;;;;;;4.65;2.30;;;;;;;;;;681118;28;1917;-66
2023/12/31 02:00:04;;;;;;;5.70;2.20;;;;;;;;;;681383;28;1551;-66
2023/12/31 02:00:32;;;;;;;4.10;2.30;;;;;;;;;;683406;28;670;-67
2023/12/31 02:00:52;;;;;;;3.90;2.30;;;;;;;;;;682271;28;2006;-66
2023/12/31 02:01:13;;;;;;;4.17;2.30;;;;;;;;;;684379;28;4525;-67
2023/12/31 02:01:35;;;;;;;5.32;2.60;;;;;;;;;;686070;28;1192;-66
2023/12/31 02:01:56;;;;;;;4.13;2.25;;;;;;;;;;684966;28;1490;-67
2023/12/31 02:02:16;;;;;;;3.67;2.20;;;;;;;;;;686839;28;854;-66
2023/12/31 02:02:37;;;;;;;3.77;2.30;;;;;;;;;;687097;28;1793;-67
2023/12/31 02:02:58;;;;;;;3.75;2.20;;;;;;;;;;687099;28;1366;-66
2023/12/31 02:03:18;;;;;;;4.30;2.28;;;;;;;;;;685116;28;848;-69
2023/12/31 02:03:39;;;;;;;4.60;2.37;;;;;;;;;;682054;28;1743;-66
2023/12/31 02:03:59;;;;;;;4.72;2.50;;;;;;;;;;684557;28;1253;-67
2023/12/31 02:04:21;;;;;;;4.18;2.40;;;;;;;;;;683539;28;4809;-66
2023/12/31 02:04:42;;;;;;;4.05;2.25;;;;;;;;;;684541;28;1782;-66
2023/12/31 02:05:02;;;;;;;4.43;2.33;;;;;;;;;;686964;28;1956;-67
2023/12/31 02:05:22;;;;;;;4.17;2.23;;;;;;;;;;686477;28;1047;-66
2023/12/31 02:05:43;;;;;;;4.70;2.35;;;;;;;;;;685120;28;1736;-66
2023/12/31 02:06:03;;;;;;;4.43;2.33;;;;;;;;;;686460;28;959;-67
2023/12/31 02:06:23;;;;;;;3.97;2.27;;;;;;;;;;684650;28;900;-67
2023/12/31 02:06:44;;;;;;;4.32;2.47;;;;;;;;;;684920;28;1943;-67
2023/12/31 02:07:04;;;;;;;3.77;2.30;;;;;;;;;;685036;28;4410;-66
2023/12/31 02:07:24;;;;;;;4.82;2.35;;;;;;;;;;685917;28;865;-67
2023/12/31 02:07:45;;;;;;;4.77;2.20;;;;;;;;;;685504;28;1715;-67